Terminal Aerodrome Forecast
Issued by NWS Charleston, WV

Current Version | Previous Version | Graphics & Text | Print | Product List | Glossary On
Versions: 1 2 3 4 5 6 7 8 9 10 11 12 13 14 15 16 17 18 19 20 21
000
FTUS41 KRLX 040841 AAA
TAFBKW
TAF AMD
KBKW 040841Z 0409/0506 24005KT P6SM SCT050
     FM041200 24004KT 6SM BR HZ BKN012
     FM041500 26006KT P6SM SCT015
     FM041700 27007KT P6SM SCT025
     FM042200 29006KT P6SM BKN035
     FM050100 00000KT P6SM BKN035
     FM050400 00000KT 6SM BR BKN025=

USA.gov is the U.S. government's official web portal to all federal, state and local government web resources and services.